createdAt,value
2022-08-22T00:01:13.513Z,100947.28
2022-08-22T00:06:37.297Z,100945.38
2022-08-22T00:11:41.731Z,100940.06
2022-08-22T00:16:55.339Z,100943.16
2022-08-22T00:22:00.239Z,100933.41
2022-08-22T00:27:20.207Z,100934.19
2022-08-22T00:32:24.308Z,100937.00
2022-08-22T00:37:28.725Z,100939.19
2022-08-22T00:42:32.056Z,100935.25
2022-08-22T00:47:52.744Z,100933.75
2022-08-22T00:52:55.371Z,100938.16
2022-08-22T00:58:00.602Z,100940.63
2022-08-22T01:03:05.008Z,100940.63
2022-08-22T01:08:09.591Z,100944.25
2022-08-22T01:13:26.063Z,100936.94
2022-08-22T01:18:31.938Z,100928.56
2022-08-22T01:23:53.587Z,100927.81
2022-08-22T01:29:12.967Z,100928.38
2022-08-22T01:34:34.113Z,100933.44
2022-08-22T01:39:54.488Z,100929.78
2022-08-22T01:45:02.080Z,100938.16
2022-08-22T01:50:12.810Z,100932.19
2022-08-22T01:55:26.275Z,100927.84
2022-08-22T02:00:35.192Z,100934.19
2022-08-22T02:05:47.205Z,100926.34
2022-08-22T02:11:07.109Z,100928.34
2022-08-22T02:16:08.632Z,100932.06
2022-08-22T02:21:15.313Z,100936.66
2022-08-22T02:26:20.868Z,100932.88
2022-08-22T02:31:41.063Z,100917.66
2022-08-22T02:36:53.907Z,100916.91
2022-08-22T02:42:06.126Z,100912.56
2022-08-22T02:47:27.827Z,100917.00
2022-08-22T02:52:44.172Z,100910.69
2022-08-22T02:57:52.661Z,100909.03
2022-08-22T03:03:12.812Z,100903.56
2022-08-22T03:08:22.384Z,100911.34
2022-08-22T03:13:36.085Z,100901.88
2022-08-22T03:18:48.534Z,100905.03
2022-08-22T03:23:56.449Z,100899.41
2022-08-22T03:29:11.540Z,100902.50
2022-08-22T03:34:27.018Z,100894.22
2022-08-22T03:39:47.838Z,100899.09
2022-08-22T03:45:11.262Z,100902.75
2022-08-22T03:50:31.979Z,100899.16
2022-08-22T03:55:52.184Z,100899.97
2022-08-22T04:01:32.142Z,100902.84
2022-08-22T04:06:53.735Z,100902.47
2022-08-22T04:11:59.559Z,100898.22
2022-08-22T04:17:03.761Z,100907.75
2022-08-22T04:22:13.459Z,100912.81
2022-08-22T04:27:37.857Z,100906.94
2022-08-22T04:32:58.259Z,100907.00
2022-08-22T04:38:09.141Z,100899.28
2022-08-22T04:43:14.499Z,100914.03
2022-08-22T04:48:34.785Z,100910.41
2022-08-22T04:53:55.736Z,100908.97
2022-08-22T04:58:58.723Z,100911.19
2022-08-22T05:04:02.261Z,100918.84
2022-08-22T05:09:06.398Z,100923.72
2022-08-22T05:14:21.380Z,100924.72
2022-08-22T05:19:31.653Z,100927.50
2022-08-22T05:24:39.523Z,100929.91
2022-08-22T05:29:42.912Z,100929.53
2022-08-22T05:34:46.351Z,100935.31
2022-08-22T05:39:51.099Z,100938.72
2022-08-22T05:44:54.007Z,100941.09
2022-08-22T05:50:05.307Z,100931.34
2022-08-22T05:55:25.114Z,100928.63
2022-08-22T06:00:28.434Z,100935.59
2022-08-22T06:05:32.452Z,100924.31
2022-08-22T06:10:48.131Z,100930.22
2022-08-22T06:15:52.725Z,100925.19
2022-08-22T06:20:56.261Z,100928.91
2022-08-22T06:25:59.924Z,100935.78
2022-08-22T06:31:02.257Z,100938.34
2022-08-22T06:36:30.714Z,100950.63
2022-08-22T06:41:34.260Z,100948.94
2022-08-22T06:46:37.069Z,100952.03
2022-08-22T06:51:38.943Z,100945.78
2022-08-22T06:56:42.330Z,100945.13
2022-08-22T07:01:50.419Z,100944.53
2022-08-22T07:06:52.550Z,100950.16
2022-08-22T07:11:56.268Z,100938.91
2022-08-22T07:17:03.608Z,100941.09
2022-08-22T07:22:13.427Z,100928.50
2022-08-22T07:27:22.635Z,100926.13
2022-08-22T07:32:23.960Z,100939.66
2022-08-22T07:37:28.051Z,100918.91
2022-08-22T07:42:55.856Z,100924.19
2022-08-22T07:48:00.524Z,100930.75
2022-08-22T07:53:08.700Z,100932.56
2022-08-22T07:58:13.411Z,100925.00
2022-08-22T08:03:15.125Z,100926.94
2022-08-22T08:08:21.025Z,100920.50
2022-08-22T08:13:29.588Z,100920.09
2022-08-22T08:18:33.987Z,100912.47
2022-08-22T08:23:39.596Z,100908.97
2022-08-22T08:28:44.149Z,100912.69
2022-08-22T08:33:47.675Z,100914.56
2022-08-22T08:39:04.226Z,100903.13
2022-08-22T08:44:08.611Z,100899.28
2022-08-22T08:49:24.178Z,100895.25
2022-08-22T08:54:44.197Z,100885.00
2022-08-22T09:00:02.021Z,100876.06
2022-08-22T09:05:17.499Z,100873.13
2022-08-22T09:10:31.194Z,100868.91
2022-08-22T09:15:39.010Z,100855.88
2022-08-22T09:20:46.386Z,100859.00
2022-08-22T09:26:02.213Z,100848.97
2022-08-22T09:31:16.903Z,100839.00
2022-08-22T09:36:33.758Z,100836.63
2022-08-22T09:41:35.084Z,100831.06
2022-08-22T09:46:45.801Z,100828.22
2022-08-22T09:51:56.416Z,100831.09
2022-08-22T09:56:58.600Z,100822.00
2022-08-22T10:02:15.678Z,100812.03
2022-08-22T10:07:17.133Z,100798.59
2022-08-22T10:12:25.791Z,100799.34
2022-08-22T10:17:32.371Z,100786.69
2022-08-22T10:22:45.372Z,100781.53
2022-08-22T10:27:47.745Z,100780.41
2022-08-22T10:32:55.277Z,100781.78
2022-08-22T10:37:59.486Z,100768.13
2022-08-22T10:43:12.766Z,100766.44
2022-08-22T10:48:21.839Z,100772.06
2022-08-22T10:53:42.847Z,100760.38
2022-08-22T10:58:55.978Z,100754.63
2022-08-22T11:04:00.427Z,100740.66
2022-08-22T11:09:14.315Z,100732.63
2022-08-22T11:14:34.629Z,100726.22
2022-08-22T11:19:35.943Z,100725.78
2022-08-22T11:24:54.026Z,100719.50
2022-08-22T11:30:03.283Z,100719.56
2022-08-22T11:35:22.979Z,100709.03
2022-08-22T11:40:38.551Z,100702.38
2022-08-22T11:45:51.452Z,100690.38
2022-08-22T11:51:13.402Z,100691.16
2022-08-22T11:56:32.735Z,100678.91
2022-08-22T12:01:42.753Z,100673.84
2022-08-22T12:06:49.652Z,100674.75
2022-08-22T12:11:53.955Z,100663.56
2022-08-22T12:17:22.798Z,100652.78
2022-08-22T12:23:01.063Z,100657.34
2022-08-22T12:28:21.378Z,100644.22
2022-08-22T12:33:30.819Z,100641.44
2022-08-22T12:38:49.622Z,100639.78
2022-08-22T12:44:12.596Z,100641.97
2022-08-22T12:49:24.920Z,100635.91
2022-08-22T12:54:35.174Z,100634.63
2022-08-22T12:59:38.632Z,100626.78
2022-08-22T13:04:45.267Z,100626.63
2022-08-22T13:09:48.971Z,100610.59
2022-08-22T13:14:56.762Z,100614.41
2022-08-22T13:20:10.771Z,100611.03
2022-08-22T13:25:25.821Z,100607.84
2022-08-22T13:30:33.477Z,100609.03
2022-08-22T13:35:54.095Z,100605.16
2022-08-22T13:40:56.933Z,100609.72
2022-08-22T13:46:04.858Z,100603.03
2022-08-22T13:51:11.304Z,100599.88
2022-08-22T13:56:20.369Z,100599.22
2022-08-22T14:01:45.482Z,100592.03
2022-08-22T14:07:03.295Z,100590.81
2022-08-22T14:12:11.700Z,100586.66
2022-08-22T14:17:16.033Z,100580.00
2022-08-22T14:22:32.020Z,100584.81
2022-08-22T14:27:36.915Z,100585.00
2022-08-22T14:32:48.076Z,100578.56
2022-08-22T14:37:53.476Z,100579.38
2022-08-22T14:43:04.248Z,100579.28
2022-08-22T14:48:29.630Z,100567.91
2022-08-22T14:53:34.421Z,100558.56
2022-08-22T14:58:54.433Z,100558.13
2022-08-22T15:04:02.338Z,100556.06
2022-08-22T15:09:08.685Z,100550.66
2022-08-22T15:14:13.681Z,100546.94
2022-08-22T15:19:35.458Z,100539.38
2022-08-22T15:24:45.719Z,100530.00
2022-08-22T15:29:52.495Z,100528.53
2022-08-22T15:35:02.952Z,100532.72
2022-08-22T15:40:12.055Z,100530.72
2022-08-22T15:45:37.392Z,100527.97
2022-08-22T15:50:41.998Z,100518.50
2022-08-22T15:56:05.041Z,100515.81
2022-08-22T16:01:19.937Z,100521.22
2022-08-22T16:06:42.495Z,100512.03
2022-08-22T16:11:55.564Z,100515.25
2022-08-22T16:17:02.041Z,100516.81
2022-08-22T16:22:05.377Z,100522.94
2022-08-22T16:27:20.674Z,100519.25
2022-08-22T16:32:25.192Z,100523.09
2022-08-22T16:37:29.645Z,100524.25
2022-08-22T16:42:40.110Z,100517.59
2022-08-22T16:47:54.490Z,100520.81
2022-08-22T16:53:12.007Z,100535.19
2022-08-22T16:58:49.875Z,100530.72
2022-08-22T17:04:09.443Z,100525.91
2022-08-22T17:09:34.188Z,100529.44
2022-08-22T17:14:47.749Z,100525.16
2022-08-22T17:20:08.240Z,100535.88
2022-08-22T17:25:18.644Z,100538.72
2022-08-22T17:30:22.464Z,100543.34
2022-08-22T17:35:42.566Z,100544.75
2022-08-22T17:41:11.906Z,100543.78
2022-08-22T17:46:13.549Z,100546.78
2022-08-22T17:51:34.169Z,100543.88
2022-08-22T17:57:05.560Z,100543.06
2022-08-22T18:02:11.292Z,100557.59
2022-08-22T18:07:15.436Z,100556.09
2022-08-22T18:12:34.310Z,100563.41
2022-08-22T18:17:48.002Z,100553.81
2022-08-22T18:22:55.449Z,100558.69
2022-08-22T18:28:03.672Z,100562.66
2022-08-22T18:33:12.467Z,100567.34
2022-08-22T18:38:34.176Z,100575.16
2022-08-22T18:43:37.471Z,100581.22
2022-08-22T18:48:54.413Z,100583.38
2022-08-22T18:54:04.807Z,100588.69
2022-08-22T18:59:18.466Z,100592.78
2022-08-22T19:04:32.997Z,100601.75
2022-08-22T19:09:47.038Z,100601.53
2022-08-22T19:14:57.915Z,100615.25
2022-08-22T19:20:37.788Z,100616.19
2022-08-22T19:26:00.028Z,100615.97
2022-08-22T19:31:42.784Z,100623.28
2022-08-22T19:36:45.621Z,100620.47
2022-08-22T19:41:52.746Z,100628.59
2022-08-22T19:46:59.837Z,100626.13
2022-08-22T19:52:13.472Z,100621.56
2022-08-22T19:57:17.779Z,100624.97
2022-08-22T20:02:32.012Z,100618.81
2022-08-22T20:07:33.363Z,100617.59
2022-08-22T20:12:51.932Z,100626.09
2022-08-22T20:23:19.699Z,100641.78
2022-08-22T20:28:27.136Z,100644.75
2022-08-22T20:33:32.425Z,100640.03
2022-08-22T20:38:39.517Z,100652.56
2022-08-22T20:43:47.299Z,100638.78
2022-08-22T20:48:50.672Z,100640.19
2022-08-22T20:53:59.696Z,100637.81
2022-08-22T20:59:12.591Z,100638.38
2022-08-22T21:04:17.895Z,100643.16
2022-08-22T21:09:38.317Z,100645.28
2022-08-22T21:14:45.906Z,100639.69
2022-08-22T21:19:47.431Z,100648.47
2022-08-22T21:24:48.782Z,100654.03
2022-08-22T21:29:50.154Z,100655.81
2022-08-22T21:34:51.987Z,100664.53
2022-08-22T21:39:59.790Z,100662.09
2022-08-22T21:45:03.073Z,100663.59
2022-08-22T21:50:04.392Z,100661.91
2022-08-22T21:55:34.436Z,100668.16
2022-08-22T22:00:45.492Z,100673.97
2022-08-22T22:05:52.751Z,100674.56
2022-08-22T22:10:55.537Z,100670.25
2022-08-22T22:15:57.040Z,100674.69
2022-08-22T22:20:58.384Z,100677.59
2022-08-22T22:26:00.911Z,100686.81
2022-08-22T22:31:03.508Z,100693.06
2022-08-22T22:36:06.759Z,100694.81
2022-08-22T22:41:08.136Z,100706.56
2022-08-22T22:46:09.517Z,100700.38
2022-08-22T22:51:12.218Z,100703.47
2022-08-22T22:56:21.231Z,100712.63
2022-08-22T23:01:25.727Z,100706.72
2022-08-22T23:06:29.207Z,100714.13
2022-08-22T23:11:31.012Z,100708.22
2022-08-22T23:16:37.128Z,100705.97
2022-08-22T23:21:39.429Z,100713.88
2022-08-22T23:26:40.870Z,100719.50
2022-08-22T23:31:43.519Z,100727.19
2022-08-22T23:36:45.921Z,100729.63
2022-08-22T23:41:48.099Z,100728.63
2022-08-22T23:46:49.963Z,100738.72
2022-08-22T23:51:51.933Z,100738.88
2022-08-22T23:56:54.692Z,100748.13
